createdAt,value
2019-03-30T00:00:34.846Z,99.90
2019-03-30T00:03:05.595Z,99.90
2019-03-30T00:05:36.313Z,99.90
2019-03-30T00:08:07.003Z,99.90
2019-03-30T00:10:37.715Z,99.90
2019-03-30T00:13:08.415Z,99.90
2019-03-30T00:15:39.113Z,99.90
2019-03-30T00:18:09.893Z,99.90
2019-03-30T00:20:40.650Z,99.90
2019-03-30T00:23:11.476Z,99.90
2019-03-30T00:25:42.270Z,99.90
2019-03-30T00:28:13.045Z,99.90
2019-03-30T00:30:43.720Z,99.90
2019-03-30T00:33:14.433Z,99.90
2019-03-30T00:35:45.150Z,99.90
2019-03-30T00:38:15.877Z,99.90
2019-03-30T00:40:46.544Z,99.90
2019-03-30T00:43:17.178Z,99.90
2019-03-30T00:45:47.866Z,99.90
2019-03-30T00:48:18.575Z,99.90
2019-03-30T00:50:49.213Z,99.90
2019-03-30T00:53:19.929Z,99.90
2019-03-30T00:55:50.667Z,99.90
2019-03-30T00:58:25.499Z,99.90
2019-03-30T01:00:54.902Z,99.90
2019-03-30T01:03:25.718Z,99.90
2019-03-30T01:05:58.274Z,99.90
2019-03-30T01:08:28.841Z,99.90
2019-03-30T01:10:59.534Z,99.90
2019-03-30T01:13:31.279Z,99.90
2019-03-30T01:16:02.025Z,99.90
2019-03-30T01:18:32.822Z,99.90
2019-03-30T01:21:03.633Z,99.90
2019-03-30T01:23:34.347Z,99.90
2019-03-30T01:26:05.197Z,99.90
2019-03-30T01:28:36.029Z,99.90
2019-03-30T01:31:06.734Z,99.90
2019-03-30T01:33:37.473Z,99.90
2019-03-30T01:36:08.261Z,99.90
2019-03-30T01:38:39.018Z,99.90
2019-03-30T01:41:09.633Z,99.90
2019-03-30T01:43:40.354Z,99.90
2019-03-30T01:46:11.063Z,99.90
2019-03-30T01:48:41.964Z,99.90
2019-03-30T01:51:12.651Z,99.90
2019-03-30T01:53:43.403Z,99.90
2019-03-30T01:56:14.069Z,99.90
2019-03-30T01:58:44.846Z,99.90
2019-03-30T02:01:15.589Z,99.90
2019-03-30T02:03:46.242Z,99.90
2019-03-30T02:06:16.855Z,99.90
2019-03-30T02:08:47.550Z,99.90
2019-03-30T02:11:18.174Z,99.90
2019-03-30T02:13:49.741Z,99.90
2019-03-30T02:16:20.374Z,99.90
2019-03-30T02:18:51.123Z,99.90
2019-03-30T02:21:22.886Z,99.90
2019-03-30T02:23:53.600Z,99.90
2019-03-30T02:26:24.281Z,99.90
2019-03-30T02:28:54.982Z,99.90
2019-03-30T02:31:25.663Z,99.90
2019-03-30T02:33:56.472Z,99.90
2019-03-30T02:36:27.190Z,99.90
2019-03-30T02:38:57.885Z,99.90
2019-03-30T02:41:28.567Z,99.90
2019-03-30T02:43:59.355Z,99.90
2019-03-30T02:46:30.119Z,99.90
2019-03-30T02:49:00.900Z,99.90
2019-03-30T02:51:32.594Z,99.90
2019-03-30T02:54:03.403Z,99.90
2019-03-30T02:56:34.006Z,99.90
2019-03-30T02:59:04.711Z,99.90
2019-03-30T03:01:35.327Z,99.90
2019-03-30T03:04:06.134Z,99.90
2019-03-30T03:06:38.007Z,99.90
2019-03-30T03:09:10.359Z,99.90
2019-03-30T03:11:41.094Z,99.90
2019-03-30T03:14:12.417Z,99.90
2019-03-30T03:16:43.210Z,99.90
2019-03-30T03:19:13.851Z,99.90
2019-03-30T03:21:44.546Z,99.90
2019-03-30T03:24:15.185Z,99.90
2019-03-30T03:26:46.863Z,99.90
2019-03-30T03:29:17.592Z,99.90
2019-03-30T03:31:48.382Z,99.90
2019-03-30T03:34:19.231Z,99.90
2019-03-30T03:36:49.862Z,99.90
2019-03-30T03:39:20.714Z,99.90
2019-03-30T03:41:51.418Z,99.90
2019-03-30T03:44:22.189Z,99.90
2019-03-30T03:46:52.914Z,99.90
2019-03-30T03:49:23.589Z,99.90
2019-03-30T03:51:54.262Z,99.90
2019-03-30T03:54:24.985Z,99.90
2019-03-30T03:56:57.894Z,99.90
2019-03-30T03:59:29.732Z,99.90
2019-03-30T04:02:02.826Z,99.90
2019-03-30T04:04:36.167Z,99.90
2019-03-30T04:07:07.687Z,99.90
2019-03-30T04:09:41.064Z,99.90
2019-03-30T04:12:13.311Z,99.90
2019-03-30T04:14:49.491Z,99.90
2019-03-30T04:17:20.180Z,99.90
2019-03-30T04:19:50.910Z,99.90
2019-03-30T04:22:22.629Z,99.90
2019-03-30T04:24:53.451Z,99.90
2019-03-30T04:27:24.182Z,99.90
2019-03-30T04:29:54.913Z,99.90
2019-03-30T04:32:25.578Z,99.90
2019-03-30T04:34:56.352Z,99.90
2019-03-30T04:37:27.139Z,99.90
2019-03-30T04:39:57.883Z,99.90
2019-03-30T04:42:28.625Z,99.90
2019-03-30T04:44:59.340Z,99.90
2019-03-30T04:47:30.078Z,99.90
2019-03-30T04:50:00.757Z,99.90
2019-03-30T04:52:31.350Z,99.90
2019-03-30T04:55:01.988Z,99.90
2019-03-30T04:57:32.609Z,99.90
2019-03-30T05:00:03.266Z,99.90
2019-03-30T05:02:33.907Z,99.90
2019-03-30T05:05:04.675Z,99.90
2019-03-30T05:07:35.242Z,99.90
2019-03-30T05:10:06.937Z,99.90
2019-03-30T05:12:37.623Z,99.90
2019-03-30T05:15:09.465Z,99.90
2019-03-30T05:17:47.411Z,99.90
2019-03-30T05:20:12.646Z,99.90
2019-03-30T05:22:43.315Z,99.90
2019-03-30T05:25:14.091Z,99.90
2019-03-30T05:27:44.902Z,99.90
2019-03-30T05:30:15.631Z,99.90
2019-03-30T05:32:46.351Z,99.90
2019-03-30T05:35:17.085Z,99.90
2019-03-30T05:37:47.705Z,99.90
2019-03-30T05:40:23.442Z,99.90
2019-03-30T05:42:58.376Z,99.90
2019-03-30T05:45:31.567Z,99.90
2019-03-30T05:48:02.531Z,99.90
2019-03-30T05:50:33.218Z,99.90
2019-03-30T05:53:03.906Z,99.90
2019-03-30T05:55:35.731Z,99.90
2019-03-30T05:58:06.402Z,99.90
2019-03-30T06:00:37.129Z,99.90
2019-03-30T06:03:07.761Z,99.90
2019-03-30T06:05:38.573Z,99.90
2019-03-30T06:08:09.363Z,99.90
2019-03-30T06:10:40.169Z,99.90
2019-03-30T06:13:10.896Z,99.90
2019-03-30T06:15:41.690Z,99.90
2019-03-30T06:18:12.504Z,99.90
2019-03-30T06:20:43.287Z,99.90
2019-03-30T06:23:13.971Z,99.90
2019-03-30T06:25:44.799Z,99.90
2019-03-30T06:28:16.565Z,99.90
2019-03-30T06:30:48.442Z,99.90
2019-03-30T06:33:21.763Z,99.90
2019-03-30T06:35:55.164Z,99.90
2019-03-30T06:38:25.970Z,99.90
2019-03-30T06:40:56.744Z,99.90
2019-03-30T06:43:27.578Z,99.90
2019-03-30T06:45:58.390Z,99.90
2019-03-30T06:48:29.226Z,99.90
2019-03-30T06:51:00.024Z,99.80
2019-03-30T06:53:30.689Z,99.90
2019-03-30T06:56:01.462Z,99.90
2019-03-30T06:58:32.157Z,99.60
2019-03-30T07:01:03.036Z,99.80
2019-03-30T07:03:33.741Z,99.80
2019-03-30T07:06:06.698Z,99.70
2019-03-30T07:08:38.248Z,99.20
2019-03-30T07:11:21.131Z,99.60
2019-03-30T07:13:46.173Z,99.40
2019-03-30T07:16:16.885Z,99.40
2019-03-30T07:18:51.330Z,99.10
2019-03-30T07:21:22.076Z,99.20
2019-03-30T07:23:52.781Z,98.80
2019-03-30T07:26:23.579Z,98.60
2019-03-30T07:28:54.290Z,99.10
2019-03-30T07:31:24.989Z,98.10
2019-03-30T07:33:55.673Z,98.20
2019-03-30T07:36:26.390Z,98.20
2019-03-30T07:38:57.058Z,97.80
2019-03-30T07:41:27.771Z,98.50
2019-03-30T07:43:58.473Z,98.60
2019-03-30T07:46:29.278Z,98.30
2019-03-30T07:49:00.126Z,98.50
2019-03-30T07:51:33.356Z,98.60
2019-03-30T07:54:03.201Z,97.90
2019-03-30T07:56:33.986Z,98.30
2019-03-30T07:59:04.720Z,98.30
2019-03-30T08:01:36.374Z,98.20
2019-03-30T08:04:07.084Z,98.30
2019-03-30T08:06:37.858Z,98.40
2019-03-30T08:09:08.702Z,97.90
2019-03-30T08:11:39.369Z,98.10
2019-03-30T08:14:10.026Z,98.50
2019-03-30T08:16:40.799Z,98.10
2019-03-30T08:19:11.430Z,97.90
2019-03-30T08:21:42.130Z,97.80
2019-03-30T08:24:12.801Z,97.70
2019-03-30T08:26:43.506Z,97.20
2019-03-30T08:29:14.289Z,96.80
2019-03-30T08:31:44.989Z,96.90
2019-03-30T08:34:15.641Z,96.90
2019-03-30T08:36:46.333Z,96.60
2019-03-30T08:39:17.074Z,96.40
2019-03-30T08:41:47.802Z,96.60
2019-03-30T08:44:18.522Z,96.00
2019-03-30T08:46:49.256Z,96.00
2019-03-30T08:49:19.873Z,95.40
2019-03-30T08:51:50.647Z,96.00
2019-03-30T08:54:21.382Z,95.60
2019-03-30T08:56:53.110Z,95.80
2019-03-30T08:59:23.847Z,95.10
2019-03-30T09:01:54.528Z,95.00
2019-03-30T09:04:25.312Z,95.70
2019-03-30T09:06:55.982Z,95.20
2019-03-30T09:09:26.693Z,95.10
2019-03-30T09:11:57.457Z,94.30
2019-03-30T09:14:28.161Z,94.30
2019-03-30T09:16:58.850Z,93.90
2019-03-30T09:19:29.537Z,93.90
2019-03-30T09:22:00.262Z,94.60
2019-03-30T09:24:30.952Z,95.30
2019-03-30T09:27:01.654Z,95.20
2019-03-30T09:29:32.338Z,95.10
2019-03-30T09:32:13.676Z,95.30
2019-03-30T09:34:35.517Z,94.60
2019-03-30T09:37:07.351Z,94.80
2019-03-30T09:39:38.113Z,93.90
2019-03-30T09:42:08.862Z,93.90
2019-03-30T09:44:39.497Z,93.80
2019-03-30T09:47:10.251Z,91.10
2019-03-30T09:49:40.896Z,91.20
2019-03-30T09:52:11.753Z,90.70
2019-03-30T09:54:42.549Z,90.70
2019-03-30T09:57:13.466Z,89.80
2019-03-30T09:59:45.286Z,90.70
2019-03-30T10:02:16.038Z,89.30
2019-03-30T10:04:46.705Z,89.30
2019-03-30T10:07:17.613Z,91.00
2019-03-30T10:09:48.425Z,90.80
2019-03-30T10:12:19.248Z,91.70
2019-03-30T10:14:49.974Z,91.20
2019-03-30T10:17:20.754Z,91.60
2019-03-30T10:20:03.546Z,92.20
2019-03-30T10:22:24.099Z,91.60
2019-03-30T10:24:58.169Z,90.90
2019-03-30T10:27:27.170Z,91.10
2019-03-30T10:29:57.734Z,91.80
2019-03-30T10:32:28.633Z,90.70
2019-03-30T10:34:59.446Z,90.90
2019-03-30T10:37:30.128Z,90.50
2019-03-30T10:40:00.778Z,91.50
2019-03-30T10:42:31.464Z,91.70
2019-03-30T10:45:02.234Z,91.20
2019-03-30T10:47:33.135Z,91.40
2019-03-30T10:50:04.069Z,91.00
2019-03-30T10:52:35.661Z,90.80
2019-03-30T10:55:07.162Z,87.80
2019-03-30T10:57:37.823Z,86.00
2019-03-30T11:00:10.057Z,86.30
2019-03-30T11:02:40.993Z,85.20
2019-03-30T11:05:11.758Z,87.10
2019-03-30T11:07:42.622Z,86.30
2019-03-30T11:10:13.438Z,86.10
2019-03-30T11:12:44.174Z,84.10
2019-03-30T11:15:15.008Z,81.30
2019-03-30T11:17:45.858Z,81.30
2019-03-30T11:20:17.086Z,79.10
2019-03-30T11:22:47.974Z,76.10
2019-03-30T11:25:18.727Z,75.70
2019-03-30T11:27:49.587Z,76.50
2019-03-30T11:30:20.285Z,75.40
2019-03-30T11:32:50.989Z,75.10
2019-03-30T11:35:21.690Z,73.30
2019-03-30T11:37:52.533Z,72.80
2019-03-30T11:40:23.271Z,72.30
2019-03-30T11:42:53.984Z,69.90
2019-03-30T11:45:24.733Z,70.60
2019-03-30T11:47:55.457Z,69.00
2019-03-30T11:50:26.142Z,69.00
2019-03-30T11:52:56.857Z,70.00
2019-03-30T11:55:27.715Z,71.70
2019-03-30T11:57:58.614Z,70.30
2019-03-30T12:00:29.405Z,70.40
2019-03-30T12:03:00.225Z,68.90
2019-03-30T12:05:30.851Z,70.40
2019-03-30T12:08:01.558Z,70.90
2019-03-30T12:10:32.230Z,70.30
2019-03-30T12:13:02.901Z,70.70
2019-03-30T12:15:33.502Z,71.00
2019-03-30T12:18:04.249Z,69.40
2019-03-30T12:20:34.918Z,69.50
2019-03-30T12:23:05.579Z,70.40
2019-03-30T12:25:36.416Z,69.20
2019-03-30T12:28:07.145Z,71.20
2019-03-30T12:30:37.897Z,70.40
2019-03-30T12:33:08.613Z,69.90
2019-03-30T12:35:39.402Z,69.60
2019-03-30T12:38:10.050Z,67.30
2019-03-30T12:40:40.867Z,70.50
2019-03-30T12:43:11.778Z,69.70
2019-03-30T12:45:42.849Z,72.30
2019-03-30T12:48:13.585Z,70.90
2019-03-30T12:50:44.329Z,70.40
2019-03-30T12:53:15.090Z,69.40
2019-03-30T12:55:49.603Z,69.20
2019-03-30T12:58:18.351Z,69.40
2019-03-30T13:00:49.193Z,69.50
2019-03-30T13:03:19.972Z,69.50
2019-03-30T13:05:50.662Z,70.50
2019-03-30T13:08:21.517Z,71.10
2019-03-30T13:10:52.418Z,70.40
2019-03-30T13:13:23.197Z,70.90
2019-03-30T13:15:53.878Z,68.50
2019-03-30T13:18:24.635Z,68.90
2019-03-30T13:20:55.374Z,68.60
2019-03-30T13:23:26.025Z,70.50
2019-03-30T13:26:03.411Z,69.30
2019-03-30T13:28:29.125Z,70.30
2019-03-30T13:30:59.840Z,71.80
2019-03-30T13:33:30.597Z,71.90
2019-03-30T13:36:01.310Z,74.10
2019-03-30T13:38:32.035Z,73.00
2019-03-30T13:41:02.712Z,73.30
2019-03-30T13:43:33.618Z,72.50
2019-03-30T13:46:04.261Z,72.70
2019-03-30T13:48:34.957Z,72.70
2019-03-30T13:51:05.782Z,72.00
2019-03-30T13:53:36.518Z,72.10
2019-03-30T13:56:17.017Z,71.50
2019-03-30T13:58:39.699Z,73.80
2019-03-30T14:01:10.418Z,73.60
2019-03-30T14:03:41.194Z,73.90
2019-03-30T14:06:11.958Z,74.70
2019-03-30T14:08:44.158Z,75.00
2019-03-30T14:11:15.866Z,74.30
2019-03-30T14:13:46.665Z,74.00
2019-03-30T14:16:17.433Z,74.50
2019-03-30T14:18:48.205Z,75.90
2019-03-30T14:21:18.828Z,75.40
2019-03-30T14:23:49.446Z,77.50
2019-03-30T14:26:30.823Z,77.90
2019-03-30T14:28:52.626Z,78.10
2019-03-30T14:31:23.371Z,79.60
2019-03-30T14:33:53.966Z,78.60
2019-03-30T14:36:24.632Z,78.50
2019-03-30T14:38:55.532Z,78.90
2019-03-30T14:41:26.175Z,80.70
2019-03-30T14:43:56.841Z,82.00
2019-03-30T14:46:27.662Z,80.90
2019-03-30T14:48:58.446Z,82.80
2019-03-30T14:51:29.242Z,83.50
2019-03-30T14:53:59.987Z,84.00
2019-03-30T14:56:44.583Z,83.60
2019-03-30T14:59:10.025Z,84.10
2019-03-30T15:01:35.930Z,84.70
2019-03-30T15:04:06.626Z,86.10
2019-03-30T15:06:37.428Z,85.50
2019-03-30T15:09:08.798Z,86.30
2019-03-30T15:11:39.444Z,85.10
2019-03-30T15:14:10.310Z,86.10
2019-03-30T15:16:41.043Z,85.70
2019-03-30T15:19:11.718Z,85.40
2019-03-30T15:21:42.478Z,86.70
2019-03-30T15:24:13.249Z,86.20
2019-03-30T15:26:44.014Z,87.00
2019-03-30T15:29:14.601Z,87.00
2019-03-30T15:31:45.746Z,87.40
2019-03-30T15:34:16.662Z,86.50
2019-03-30T15:36:47.434Z,87.00
2019-03-30T15:39:18.326Z,88.90
2019-03-30T15:41:49.136Z,88.20
2019-03-30T15:44:19.989Z,88.10
2019-03-30T15:46:50.734Z,87.70
2019-03-30T15:49:21.405Z,88.00
2019-03-30T15:51:52.096Z,88.60
2019-03-30T15:54:22.829Z,89.60
2019-03-30T15:56:53.537Z,90.10
2019-03-30T15:59:24.243Z,89.80
2019-03-30T16:01:54.938Z,90.20
2019-03-30T16:04:26.017Z,90.70
2019-03-30T16:06:56.845Z,91.20
2019-03-30T16:09:28.544Z,91.10
2019-03-30T16:11:59.337Z,91.40
2019-03-30T16:14:30.167Z,91.70
2019-03-30T16:17:00.841Z,91.90
2019-03-30T16:19:32.649Z,92.10
2019-03-30T16:22:03.336Z,92.30
2019-03-30T16:24:34.138Z,92.90
2019-03-30T16:27:05.037Z,92.80
2019-03-30T16:29:35.800Z,92.80
2019-03-30T16:32:06.478Z,93.50
2019-03-30T16:34:37.125Z,93.80
2019-03-30T16:37:07.810Z,94.00
2019-03-30T16:39:38.657Z,94.10
2019-03-30T16:42:09.314Z,94.20
2019-03-30T16:44:40.022Z,94.40
2019-03-30T16:47:10.689Z,94.80
2019-03-30T16:49:41.441Z,95.20
2019-03-30T16:52:12.230Z,95.30
2019-03-30T16:54:42.913Z,95.50
2019-03-30T16:57:13.770Z,95.80
2019-03-30T16:59:44.518Z,96.20
2019-03-30T17:02:15.346Z,96.40
2019-03-30T17:04:46.022Z,96.80
2019-03-30T17:07:16.731Z,97.50
2019-03-30T17:09:48.354Z,97.70
2019-03-30T17:12:19.127Z,97.80
2019-03-30T17:14:49.974Z,98.20
2019-03-30T17:17:20.727Z,98.50
2019-03-30T17:19:52.594Z,98.70
2019-03-30T17:22:23.385Z,98.80
2019-03-30T17:24:54.037Z,99.10
2019-03-30T17:27:24.733Z,99.30
2019-03-30T17:29:55.470Z,99.50
2019-03-30T17:32:26.170Z,99.70
2019-03-30T17:34:57.031Z,99.80
2019-03-30T17:37:30.024Z,99.90
2019-03-30T17:40:00.977Z,99.90
2019-03-30T17:42:32.083Z,99.90
2019-03-30T17:45:03.003Z,99.90
2019-03-30T17:47:33.790Z,99.90
2019-03-30T17:50:06.470Z,99.90
2019-03-30T17:52:43.605Z,99.90
2019-03-30T17:55:14.582Z,99.90
2019-03-30T17:57:45.430Z,99.90
2019-03-30T18:00:18.346Z,99.90
2019-03-30T18:02:49.130Z,99.90
2019-03-30T18:05:21.041Z,99.90
2019-03-30T18:07:51.679Z,99.90
2019-03-30T18:10:23.315Z,99.90
2019-03-30T18:12:54.116Z,99.90
2019-03-30T18:15:25.647Z,99.90
2019-03-30T18:17:57.019Z,99.90
2019-03-30T18:20:28.149Z,99.90
2019-03-30T18:22:58.886Z,99.90
2019-03-30T18:25:30.262Z,99.90
2019-03-30T18:28:01.613Z,99.90
2019-03-30T18:30:37.852Z,99.90
2019-03-30T18:33:09.114Z,99.90
2019-03-30T18:35:41.346Z,99.90
2019-03-30T18:38:13.047Z,99.90
2019-03-30T18:40:44.178Z,99.90
2019-03-30T18:43:14.953Z,99.90
2019-03-30T18:45:45.782Z,99.90
2019-03-30T18:48:18.586Z,99.90
2019-03-30T18:50:49.609Z,99.90
2019-03-30T18:53:20.434Z,99.90
2019-03-30T18:55:51.414Z,99.90
2019-03-30T18:58:22.198Z,99.90
2019-03-30T19:00:52.933Z,99.90
2019-03-30T19:03:23.747Z,99.90
2019-03-30T19:05:54.690Z,99.90
2019-03-30T19:08:25.668Z,99.90
2019-03-30T19:10:56.332Z,99.90
2019-03-30T19:13:27.080Z,99.90
2019-03-30T19:15:57.914Z,99.90
2019-03-30T19:18:28.680Z,99.90
2019-03-30T19:21:06.963Z,99.90
2019-03-30T19:23:44.026Z,99.90
2019-03-30T19:26:14.821Z,99.90
2019-03-30T19:28:56.327Z,99.90
2019-03-30T19:31:18.014Z,99.90
2019-03-30T19:33:48.718Z,99.90
2019-03-30T19:36:19.535Z,99.90
2019-03-30T19:38:50.339Z,99.90
2019-03-30T19:41:22.261Z,99.90
2019-03-30T19:43:52.960Z,99.90
2019-03-30T19:46:26.512Z,99.90
2019-03-30T19:48:56.030Z,99.90
2019-03-30T19:51:26.775Z,99.90
2019-03-30T19:53:59.922Z,99.90
2019-03-30T19:56:29.878Z,99.90
2019-03-30T19:59:10.607Z,99.90
2019-03-30T20:01:33.050Z,99.90
2019-03-30T20:04:07.455Z,99.90
2019-03-30T20:06:36.447Z,99.90
2019-03-30T20:09:09.137Z,99.90
2019-03-30T20:11:41.379Z,99.90
2019-03-30T20:14:12.168Z,99.90
2019-03-30T20:16:43.146Z,99.90
2019-03-30T20:19:13.865Z,99.90
2019-03-30T20:21:44.618Z,99.90
2019-03-30T20:24:16.459Z,99.90
2019-03-30T20:26:47.198Z,99.90
2019-03-30T20:29:25.110Z,99.90
2019-03-30T20:31:51.492Z,99.90
2019-03-30T20:34:22.205Z,99.90
2019-03-30T20:36:52.817Z,99.90
2019-03-30T20:39:23.754Z,99.90
2019-03-30T20:41:54.487Z,99.90
2019-03-30T20:44:26.426Z,99.90
2019-03-30T20:46:58.222Z,99.90
2019-03-30T20:49:29.014Z,99.90
2019-03-30T20:51:59.720Z,99.90
2019-03-30T20:54:30.528Z,99.90
2019-03-30T20:57:02.507Z,99.90
2019-03-30T20:59:39.828Z,99.90
2019-03-30T21:02:05.614Z,99.90
2019-03-30T21:04:36.430Z,99.90
2019-03-30T21:07:07.196Z,99.90
2019-03-30T21:09:38.137Z,99.90
2019-03-30T21:12:09.012Z,99.90
2019-03-30T21:14:39.971Z,99.90
2019-03-30T21:17:10.727Z,99.90
2019-03-30T21:19:41.683Z,99.90
2019-03-30T21:22:12.686Z,99.90
2019-03-30T21:24:43.829Z,99.90
2019-03-30T21:27:14.741Z,99.90
2019-03-30T21:29:54.509Z,99.90
2019-03-30T21:32:19.295Z,99.90
2019-03-30T21:34:50.402Z,99.90
2019-03-30T21:37:21.324Z,99.90
2019-03-30T21:39:52.206Z,99.90
2019-03-30T21:42:23.026Z,99.90
2019-03-30T21:44:53.646Z,99.90
2019-03-30T21:47:24.446Z,99.90
2019-03-30T21:49:55.126Z,99.90
2019-03-30T21:52:25.864Z,99.90
2019-03-30T21:54:58.084Z,99.90
2019-03-30T21:57:28.866Z,99.90
2019-03-30T22:00:09.956Z,99.90
2019-03-30T22:02:32.354Z,99.90
2019-03-30T22:05:03.283Z,99.90
2019-03-30T22:07:34.656Z,99.90
2019-03-30T22:10:06.959Z,99.90
2019-03-30T22:12:41.798Z,99.90
2019-03-30T22:15:16.665Z,99.90
2019-03-30T22:17:47.342Z,99.90
2019-03-30T22:20:21.199Z,99.90
2019-03-30T22:22:50.546Z,99.90
2019-03-30T22:25:22.658Z,99.90
2019-03-30T22:27:53.329Z,99.90
2019-03-30T22:30:26.745Z,99.90
2019-03-30T22:32:57.522Z,99.90
2019-03-30T22:35:29.339Z,99.90
2019-03-30T22:38:01.198Z,99.90
2019-03-30T22:40:34.875Z,99.90
2019-03-30T22:43:08.563Z,99.90
2019-03-30T22:45:39.654Z,99.90
2019-03-30T22:48:10.323Z,99.90
2019-03-30T22:50:41.055Z,99.90
2019-03-30T22:53:11.911Z,99.90
2019-03-30T22:55:42.747Z,99.90
2019-03-30T22:58:13.472Z,99.90
2019-03-30T23:01:21.347Z,99.90
2019-03-30T23:03:52.198Z,99.90
2019-03-30T23:06:22.985Z,99.90
2019-03-30T23:08:53.825Z,99.90
2019-03-30T23:11:24.583Z,99.90
2019-03-30T23:13:56.291Z,99.90
2019-03-30T23:16:27.061Z,99.90
2019-03-30T23:18:57.825Z,99.90
2019-03-30T23:21:28.642Z,99.90
2019-03-30T23:23:59.499Z,99.90
2019-03-30T23:26:30.353Z,99.90
2019-03-30T23:29:01.007Z,99.90
2019-03-30T23:31:31.658Z,99.90
2019-03-30T23:34:02.400Z,99.90
2019-03-30T23:36:33.313Z,99.90
2019-03-30T23:39:06.190Z,99.90
2019-03-30T23:41:36.862Z,99.90
2019-03-30T23:44:07.502Z,99.90
2019-03-30T23:46:38.293Z,99.90
2019-03-30T23:49:08.958Z,99.90
2019-03-30T23:51:39.669Z,99.90
2019-03-30T23:54:14.205Z,99.90
2019-03-30T23:56:44.889Z,99.90
2019-03-30T23:59:15.514Z,99.90
